Time;durP1;ratioP1;P1;durP2;ratioP2;P2;SDS_P1;SDS_P2;PMS_P1;PMS_P2;Temp;Humidity;BMP_temperature;BMP_pressure;BME280_temperature;BME280_humidity;BME280_pressure;Samples;Min_cycle;Max_cycle;Signal;HPM_P1;HPM_P2
2022/06/20 00:02:44;;;;;;;;;;;13.20;99.90;;;;;;5099934;28;19928;-86
2022/06/20 00:05:14;;;;;;;;;;;13.20;99.90;;;;;;5100905;28;19935;-86
2022/06/20 00:07:43;;;;;;;;;;;13.20;99.90;;;;;;5067847;28;19928;-89
2022/06/20 00:10:13;;;;;;;;;;;13.20;99.90;;;;;;5101930;28;19928;-86
2022/06/20 00:12:42;;;;;;;;;;;14.30;99.90;;;;;;5070159;28;19932;-86
2022/06/20 00:15:28;;;;;;;;;;;13.20;99.90;;;;;;5098925;28;19924;-84
2022/06/20 00:17:57;;;;;;;;;;;13.20;99.90;;;;;;5064365;28;20405;-85
2022/06/20 00:20:27;;;;;;;;;;;13.10;99.90;;;;;;5079359;28;20282;-85
2022/06/20 00:22:58;;;;;;;;;;;13.10;99.90;;;;;;5100994;28;19928;-84
2022/06/20 00:25:30;;;;;;;;;;;13.40;99.90;;;;;;5094149;28;19927;-85
2022/06/20 00:27:58;;;;;;;;;;;13.00;99.90;;;;;;5111090;28;19924;-86
2022/06/20 00:30:28;;;;;;;;;;;13.00;99.90;;;;;;5093225;28;19997;-88
2022/06/20 00:32:58;;;;;;;;;;;13.00;99.90;;;;;;5114979;28;19928;-86
2022/06/20 00:35:59;;;;;;;;;;;13.00;99.90;;;;;;5115822;28;19912;-89
2022/06/20 00:38:27;;;;;;;;;;;13.00;99.90;;;;;;5107746;28;19924;-85
2022/06/20 00:40:57;;;;;;;;;;;13.00;99.90;;;;;;5082332;28;19928;-86
2022/06/20 00:43:31;;;;;;;;;;;12.90;99.90;;;;;;5082193;28;19928;-84
2022/06/20 00:46:27;;;;;;;;;;;12.90;99.90;;;;;;5082903;28;19931;-87
2022/06/20 00:49:23;;;;;;;;;;;12.90;99.90;;;;;;5083557;28;19931;-86
2022/06/20 00:52:15;;;;;;;;;;;12.90;99.90;;;;;;5096884;28;19935;-85
2022/06/20 00:55:05;;;;;;;;;;;12.90;99.90;;;;;;5093359;28;19947;-85
2022/06/20 00:57:55;;;;;;;;;;;12.90;99.90;;;;;;5084933;28;19995;-86
2022/06/20 01:00:41;;;;;;;;;;;12.80;99.90;;;;;;5098209;28;19939;-86
2022/06/20 01:03:34;;;;;;;;;;;12.80;99.90;;;;;;5098402;28;20026;-86
2022/06/20 01:06:23;;;;;;;;;;;12.20;99.90;;;;;;5085125;28;19931;-92
2022/06/20 01:09:10;;;;;;;;;;;12.80;99.90;;;;;;5096931;28;19951;-85
2022/06/20 01:11:57;;;;;;;;;;;13.80;99.90;;;;;;5087081;28;19935;-88
2022/06/20 01:14:51;;;;;;;;;;;12.70;99.90;;;;;;5082977;28;19935;-85
2022/06/20 01:17:41;;;;;;;;;;;12.70;99.90;;;;;;5084099;28;20282;-84
2022/06/20 01:20:31;;;;;;;;;;;12.60;99.90;;;;;;5097324;28;19931;-87
2022/06/20 01:23:41;;;;;;;;;;;12.60;99.90;;;;;;5088097;28;19932;-86
2022/06/20 01:26:39;;;;;;;;;;;12.60;99.90;;;;;;5084774;28;19935;-85
2022/06/20 01:29:25;;;;;;;;;;;12.60;99.90;;;;;;5101222;28;19928;-84
2022/06/20 01:32:12;;;;;;;;;;;12.80;99.90;;;;;;5085590;28;19936;-88
2022/06/20 01:35:01;;;;;;;;;;;12.60;99.90;;;;;;5098036;28;19931;-85
2022/06/20 01:37:47;;;;;;;;;;;12.60;99.90;;;;;;5099020;28;19939;-84
2022/06/20 01:40:36;;;;;;;;;;;12.60;99.90;;;;;;5084292;28;19932;-86
2022/06/20 01:43:28;;;;;;;;;;;12.60;99.90;;;;;;5098593;28;19931;-87
2022/06/20 01:46:15;;;;;;;;;;;12.50;99.90;;;;;;5081070;28;19935;-86
2022/06/20 01:49:14;;;;;;;;;;;12.50;99.90;;;;;;5102028;28;20349;-87
2022/06/20 01:52:04;;;;;;;;;;;12.60;99.90;;;;;;5103790;28;19924;-85
2022/06/20 01:54:54;;;;;;;;;;;12.50;99.90;;;;;;5069688;28;19931;-86
2022/06/20 01:57:42;;;;;;;;;;;12.60;99.90;;;;;;5097529;28;19950;-86
2022/06/20 02:00:28;;;;;;;;;;;12.60;99.90;;;;;;5098312;28;20286;-85
2022/06/20 02:03:18;;;;;;;;;;;12.50;99.90;;;;;;5111434;28;19934;-85
2022/06/20 02:06:09;;;;;;;;;;;12.70;99.90;;;;;;5094601;28;19930;-85
2022/06/20 02:09:00;;;;;;;;;;;11.70;99.90;;;;;;5107862;28;19932;-88
2022/06/20 02:11:48;;;;;;;;;;;12.80;99.90;;;;;;5105469;28;19935;-87
2022/06/20 02:14:41;;;;;;;;;;;12.80;99.90;;;;;;5104941;28;19947;-84
2022/06/20 02:17:35;;;;;;;;;;;12.90;99.90;;;;;;5093875;28;19932;-86
2022/06/20 02:20:25;;;;;;;;;;;13.10;99.90;;;;;;5111523;28;19935;-88
2022/06/20 02:23:17;;;;;;;;;;;12.90;99.90;;;;;;5089790;28;19935;-84
2022/06/20 02:26:07;;;;;;;;;;;12.90;99.90;;;;;;5105211;28;19931;-85
2022/06/20 02:28:57;;;;;;;;;;;13.00;99.90;;;;;;5090696;28;19931;-89
2022/06/20 02:31:43;;;;;;;;;;;13.00;99.90;;;;;;5094797;28;19931;-89
2022/06/20 02:34:30;;;;;;;;;;;13.00;99.90;;;;;;5099354;28;19934;-83
2022/06/20 02:37:21;;;;;;;;;;;13.00;99.90;;;;;;5116023;28;19930;-84
2022/06/20 02:40:11;;;;;;;;;;;13.00;99.90;;;;;;5104887;28;19930;-84
2022/06/20 02:43:03;;;;;;;;;;;13.00;99.90;;;;;;5114815;28;19930;-88
2022/06/20 02:45:52;;;;;;;;;;;13.00;99.90;;;;;;5106199;28;20397;-84
2022/06/20 02:48:42;;;;;;;;;;;13.00;99.90;;;;;;5077076;28;20402;-87
2022/06/20 02:51:35;;;;;;;;;;;11.50;99.90;;;;;;5089641;28;19935;-86
2022/06/20 02:54:27;;;;;;;;;;;12.90;99.90;;;;;;5103730;28;20308;-85
2022/06/20 02:57:16;;;;;;;;;;;12.90;99.90;;;;;;5103267;28;19924;-86
2022/06/20 03:00:03;;;;;;;;;;;12.90;99.90;;;;;;5095166;28;19935;-84
2022/06/20 03:02:57;;;;;;;;;;;12.90;99.90;;;;;;5092977;28;19935;-84
2022/06/20 03:05:51;;;;;;;;;;;12.90;99.90;;;;;;5109703;28;19923;-85
2022/06/20 03:08:41;;;;;;;;;;;12.80;99.90;;;;;;5108129;28;19931;-86
2022/06/20 03:11:28;;;;;;;;;;;12.80;99.90;;;;;;5089393;28;20306;-84
2022/06/20 03:14:16;;;;;;;;;;;12.70;99.90;;;;;;5082669;28;19939;-84
2022/06/20 03:17:05;;;;;;;;;;;12.70;99.90;;;;;;5094859;28;20319;-84
2022/06/20 03:19:54;;;;;;;;;;;12.60;99.90;;;;;;5092612;28;19931;-84
2022/06/20 03:22:47;;;;;;;;;;;12.50;99.90;;;;;;5106827;28;19931;-85
2022/06/20 03:25:51;;;;;;;;;;;12.60;99.90;;;;;;5092831;28;19931;-86
2022/06/20 03:28:39;;;;;;;;;;;12.60;99.90;;;;;;5104653;28;19939;-84
2022/06/20 03:31:27;;;;;;;;;;;12.40;99.90;;;;;;5101712;28;19931;-86
2022/06/20 03:34:16;;;;;;;;;;;12.40;99.90;;;;;;5073552;28;19932;-86
2022/06/20 03:37:03;;;;;;;;;;;12.30;99.90;;;;;;5101343;28;19935;-85
2022/06/20 03:39:53;;;;;;;;;;;12.30;99.90;;;;;;5095126;28;19947;-87
2022/06/20 03:42:40;;;;;;;;;;;12.30;99.90;;;;;;5101036;28;19931;-85
2022/06/20 03:45:30;;;;;;;;;;;12.30;99.90;;;;;;5086990;28;19924;-89
2022/06/20 03:48:19;;;;;;;;;;;12.30;99.90;;;;;;5087982;28;19935;-85
2022/06/20 03:51:08;;;;;;;;;;;12.00;99.90;;;;;;5074718;28;19931;-87
2022/06/20 03:54:08;;;;;;;;;;;12.20;99.90;;;;;;5088870;28;19931;-87
2022/06/20 03:57:06;;;;;;;;;;;12.20;99.90;;;;;;5103697;28;19931;-90
2022/06/20 04:00:01;;;;;;;;;;;12.10;99.90;;;;;;5091143;28;20170;-85
2022/06/20 04:03:00;;;;;;;;;;;12.20;99.90;;;;;;5090904;28;19939;-84
2022/06/20 04:05:52;;;;;;;;;;;12.10;99.90;;;;;;5087874;28;20397;-90
2022/06/20 04:12:08;;;;;;;;;;;12.20;99.90;;;;;;5080566;28;19939;-88
2022/06/20 04:14:59;;;;;;;;;;;12.20;99.90;;;;;;5088344;28;19939;-86
2022/06/20 04:21:12;;;;;;;;;;;12.20;99.90;;;;;;5096949;28;19935;-85
2022/06/20 04:23:58;;;;;;;;;;;12.20;99.90;;;;;;5079748;28;19931;-88
2022/06/20 04:26:48;;;;;;;;;;;12.20;99.90;;;;;;5088383;28;19924;-86
2022/06/20 04:29:46;;;;;;;;;;;12.60;99.90;;;;;;5088613;28;19939;-85
2022/06/20 04:32:35;;;;;;;;;;;12.20;99.90;;;;;;5100220;28;19931;-89
2022/06/20 04:35:37;;;;;;;;;;;12.20;99.90;;;;;;5103663;28;19923;-84
2022/06/20 04:38:29;;;;;;;;;;;12.30;99.90;;;;;;5096788;28;19935;-84
2022/06/20 04:41:27;;;;;;;;;;;12.30;99.90;;;;;;5096367;28;19935;-84
2022/06/20 04:44:40;;;;;;;;;;;12.30;99.90;;;;;;5115049;28;20472;-85
2022/06/20 04:47:32;;;;;;;;;;;12.00;99.90;;;;;;5102606;28;19927;-85
2022/06/20 04:50:26;;;;;;;;;;;12.30;99.90;;;;;;5111857;28;19931;-89
2022/06/20 04:53:15;;;;;;;;;;;12.30;99.90;;;;;;5095180;28;19931;-86
2022/06/20 04:56:05;;;;;;;;;;;12.30;99.90;;;;;;5100670;28;19935;-86
2022/06/20 04:59:00;;;;;;;;;;;12.40;99.90;;;;;;5103509;28;19931;-87
2022/06/20 05:01:47;;;;;;;;;;;12.40;99.90;;;;;;5101133;28;19935;-88
2022/06/20 05:04:41;;;;;;;;;;;12.50;99.90;;;;;;5097350;28;19932;-89
2022/06/20 05:07:36;;;;;;;;;;;12.50;99.90;;;;;;5080812;28;19938;-87
2022/06/20 05:10:22;;;;;;;;;;;12.60;99.90;;;;;;5096953;28;20299;-86
2022/06/20 05:13:17;;;;;;;;;;;12.60;99.90;;;;;;5091725;28;19931;-86
2022/06/20 05:16:05;;;;;;;;;;;12.70;99.90;;;;;;5098100;28;19931;-85
2022/06/20 05:18:56;;;;;;;;;;;12.70;99.90;;;;;;5084744;28;19935;-85
2022/06/20 05:21:45;;;;;;;;;;;12.70;99.90;;;;;;5093318;28;20303;-85
2022/06/20 05:24:34;;;;;;;;;;;12.80;99.90;;;;;;5073761;28;19939;-87
2022/06/20 05:27:47;;;;;;;;;;;12.80;99.90;;;;;;5086796;28;19935;-84
2022/06/20 05:30:35;;;;;;;;;;;12.90;99.90;;;;;;5061657;28;19924;-85
2022/06/20 05:33:38;;;;;;;;;;;12.90;99.90;;;;;;5080960;28;20454;-84
2022/06/20 05:36:18;;;;;;;;;;;13.00;99.90;;;;;;5076415;28;20374;-84
2022/06/20 05:38:47;;;;;;;;;;;13.10;99.90;;;;;;5075506;28;19928;-85
2022/06/20 05:41:17;;;;;;;;;;;13.10;99.90;;;;;;5094892;28;19924;-86
2022/06/20 05:43:48;;;;;;;;;;;13.20;99.90;;;;;;5099580;28;19932;-84
2022/06/20 05:46:22;;;;;;;;;;;13.20;99.90;;;;;;5098545;28;19935;-84
2022/06/20 05:49:07;;;;;;;;;;;13.10;99.90;;;;;;5066131;28;19936;-83
2022/06/20 05:51:36;;;;;;;;;;;13.30;99.90;;;;;;5076234;28;20291;-84
2022/06/20 05:54:09;;;;;;;;;;;15.20;99.90;;;;;;5074999;28;19987;-83
2022/06/20 05:56:39;;;;;;;;;;;13.40;99.90;;;;;;5080661;28;19927;-84
2022/06/20 05:59:21;;;;;;;;;;;13.40;99.90;;;;;;5081950;28;19934;-84
2022/06/20 06:01:49;;;;;;;;;;;13.40;99.90;;;;;;5084156;28;19928;-85
2022/06/20 06:04:17;;;;;;;;;;;13.50;99.90;;;;;;5100425;28;19939;-86
2022/06/20 06:06:48;;;;;;;;;;;13.50;99.90;;;;;;5097313;28;19924;-85
2022/06/20 06:09:20;;;;;;;;;;;13.50;99.90;;;;;;5081011;28;19935;-84
2022/06/20 06:12:00;;;;;;;;;;;13.50;99.90;;;;;;5093176;28;19939;-85
2022/06/20 06:14:29;;;;;;;;;;;13.60;99.90;;;;;;5102288;28;19932;-86
2022/06/20 06:17:04;;;;;;;;;;;13.60;99.90;;;;;;5100139;28;19924;-85
2022/06/20 06:19:57;;;;;;;;;;;13.70;99.90;;;;;;5097684;28;19939;-86
2022/06/20 06:22:27;;;;;;;;;;;13.90;99.90;;;;;;5063272;28;19931;-86
2022/06/20 06:25:20;;;;;;;;;;;13.80;99.80;;;;;;5080863;28;19931;-84
2022/06/20 06:27:55;;;;;;;;;;;13.80;99.70;;;;;;5097297;28;19943;-85
2022/06/20 06:30:32;;;;;;;;;;;13.90;99.80;;;;;;5090782;28;19924;-87
2022/06/20 06:33:09;;;;;;;;;;;14.80;99.60;;;;;;5102060;28;19924;-87
2022/06/20 06:35:39;;;;;;;;;;;13.90;99.50;;;;;;5083083;28;19931;-85
2022/06/20 06:38:22;;;;;;;;;;;14.00;99.10;;;;;;5095327;28;19935;-85
2022/06/20 06:40:53;;;;;;;;;;;14.10;99.20;;;;;;5101552;28;19924;-85
2022/06/20 06:43:30;;;;;;;;;;;14.10;99.10;;;;;;5105407;28;19934;-86
2022/06/20 06:46:04;;;;;;;;;;;14.10;98.80;;;;;;5111380;28;19928;-84
2022/06/20 06:48:50;;;;;;;;;;;14.20;98.40;;;;;;5093590;28;19928;-86
2022/06/20 06:51:31;;;;;;;;;;;14.10;98.70;;;;;;5074196;28;19924;-84
2022/06/20 06:54:18;;;;;;;;;;;14.20;98.50;;;;;;5068928;28;19927;-87
2022/06/20 06:56:49;;;;;;;;;;;14.30;98.10;;;;;;5102410;28;19931;-85
2022/06/20 06:59:28;;;;;;;;;;;14.30;97.70;;;;;;5101579;28;19928;-91
2022/06/20 07:01:59;;;;;;;;;;;14.40;97.20;;;;;;5084199;28;19935;-85
2022/06/20 07:04:32;;;;;;;;;;;14.50;96.90;;;;;;5081478;28;19928;-86
2022/06/20 07:07:04;;;;;;;;;;;14.50;97.10;;;;;;5077620;28;19942;-85
2022/06/20 07:09:36;;;;;;;;;;;14.60;96.70;;;;;;5083373;28;19931;-85
2022/06/20 07:12:07;;;;;;;;;;;14.70;96.70;;;;;;5080008;28;19924;-87
2022/06/20 07:14:41;;;;;;;;;;;14.80;96.20;;;;;;5056261;28;20505;-85
2022/06/20 07:17:46;;;;;;;;;;;15.80;96.60;;;;;;5062955;28;19931;-86
2022/06/20 07:20:17;;;;;;;;;;;14.90;95.70;;;;;;5076374;28;19990;-85
2022/06/20 07:22:47;;;;;;;;;;;14.80;95.40;;;;;;5103609;28;19932;-87
2022/06/20 07:25:22;;;;;;;;;;;14.90;95.50;;;;;;5104185;28;19924;-88
2022/06/20 07:28:15;;;;;;;;;;;15.10;94.90;;;;;;5101708;28;19940;-86
2022/06/20 07:31:04;;;;;;;;;;;15.00;94.60;;;;;;5102761;28;19924;-86
2022/06/20 07:33:53;;;;;;;;;;;15.10;94.80;;;;;;5093351;28;19928;-86
2022/06/20 07:36:26;;;;;;;;;;;15.10;93.70;;;;;;5074671;28;19931;-85
2022/06/20 07:39:06;;;;;;;;;;;15.20;93.80;;;;;;5089616;28;19928;-87
2022/06/20 07:41:58;;;;;;;;;;;15.30;93.70;;;;;;5085835;28;19936;-87
2022/06/20 07:44:32;;;;;;;;;;;15.30;93.30;;;;;;5062969;28;19931;-87
2022/06/20 07:47:24;;;;;;;;;;;15.30;93.30;;;;;;5082327;28;19924;-87
2022/06/20 07:50:00;;;;;;;;;;;15.40;93.50;;;;;;5084181;28;19928;-86
2022/06/20 07:52:36;;;;;;;;;;;15.50;93.10;;;;;;5101387;28;19932;-89
2022/06/20 07:55:47;;;;;;;;;;;15.60;92.60;;;;;;5082506;28;20292;-84
2022/06/20 07:58:27;;;;;;;;;;;15.60;92.80;;;;;;5101176;28;20247;-84
2022/06/20 08:01:02;;;;;;;;;;;15.80;92.30;;;;;;5098707;28;20397;-85
2022/06/20 08:03:36;;;;;;;;;;;15.80;92.30;;;;;;5080036;28;19931;-86
2022/06/20 08:06:17;;;;;;;;;;;15.80;92.50;;;;;;5083746;28;19924;-85
2022/06/20 08:09:10;;;;;;;;;;;16.40;92.60;;;;;;5085061;28;20394;-84
2022/06/20 08:11:47;;;;;;;;;;;15.90;92.40;;;;;;5104328;28;19924;-85
2022/06/20 08:14:54;;;;;;;;;;;16.90;92.40;;;;;;5074698;28;19928;-85
2022/06/20 08:17:25;;;;;;;;;;;16.20;92.20;;;;;;5042610;28;19924;-88
2022/06/20 08:20:08;;;;;;;;;;;16.20;92.10;;;;;;5093173;28;19924;-86
2022/06/20 08:22:53;;;;;;;;;;;16.30;92.20;;;;;;5083528;28;19935;-85
2022/06/20 08:25:36;;;;;;;;;;;16.40;92.10;;;;;;5078205;28;19924;-85
2022/06/20 08:28:21;;;;;;;;;;;16.40;91.50;;;;;;5091069;28;20360;-85
2022/06/20 08:31:13;;;;;;;;;;;16.40;92.00;;;;;;5076449;28;19925;-85
2022/06/20 08:33:51;;;;;;;;;;;16.50;92.20;;;;;;5081598;28;19936;-90
2022/06/20 08:36:32;;;;;;;;;;;16.60;91.70;;;;;;5061951;28;19932;-85
2022/06/20 08:39:12;;;;;;;;;;;16.70;91.00;;;;;;5070683;28;19925;-86
2022/06/20 08:41:59;;;;;;;;;;;16.80;91.10;;;;;;5069702;28;19925;-85
2022/06/20 08:44:46;;;;;;;;;;;16.70;91.30;;;;;;5076482;28;19932;-86
2022/06/20 08:47:38;;;;;;;;;;;16.90;91.00;;;;;;5069465;28;19952;-86
2022/06/20 08:50:34;;;;;;;;;;;17.00;91.00;;;;;;5080273;28;19929;-87
2022/06/20 08:53:14;;;;;;;;;;;17.00;90.90;;;;;;5080290;28;19935;-86
2022/06/20 08:55:45;;;;;;;;;;;17.20;90.90;;;;;;5079262;28;19943;-86
2022/06/20 08:58:35;;;;;;;;;;;17.30;90.60;;;;;;5075444;28;19931;-85
2022/06/20 09:01:26;;;;;;;;;;;17.30;90.50;;;;;;5092160;28;19925;-87
2022/06/20 09:03:57;;;;;;;;;;;17.30;90.50;;;;;;5093105;28;19924;-85
2022/06/20 09:06:57;;;;;;;;;;;17.30;90.40;;;;;;5076481;28;19935;-85
2022/06/20 09:09:28;;;;;;;;;;;17.20;90.20;;;;;;5027417;28;19939;-87
2022/06/20 09:12:11;;;;;;;;;;;17.20;90.20;;;;;;5076722;28;19935;-87
2022/06/20 09:15:02;;;;;;;;;;;17.10;90.00;;;;;;4900307;28;10000908;-86
2022/06/20 09:17:54;;;;;;;;;;;17.20;90.10;;;;;;5081245;28;19925;-88
2022/06/20 09:20:40;;;;;;;;;;;17.30;90.30;;;;;;5078958;28;20362;-86
2022/06/20 09:23:31;;;;;;;;;;;17.40;90.20;;;;;;5078131;28;19941;-86
2022/06/20 09:26:18;;;;;;;;;;;17.60;89.90;;;;;;5066279;28;19924;-87
2022/06/20 09:29:13;;;;;;;;;;;17.90;89.10;;;;;;5090486;28;19928;-87
2022/06/20 09:31:43;;;;;;;;;;;17.60;88.60;;;;;;5017158;28;19928;-86
2022/06/20 09:34:15;;;;;;;;;;;17.80;87.10;;;;;;5073589;28;19928;-87
2022/06/20 09:37:02;;;;;;;;;;;17.90;88.10;;;;;;5099349;28;19939;-87
2022/06/20 09:39:38;;;;;;;;;;;18.00;88.50;;;;;;5100680;28;19924;-87
2022/06/20 09:42:15;;;;;;;;;;;18.10;88.60;;;;;;5095055;28;19935;-85
2022/06/20 09:45:03;;;;;;;;;;;18.20;88.30;;;;;;5079745;28;19936;-86
2022/06/20 09:47:51;;;;;;;;;;;18.30;88.90;;;;;;5060855;28;19928;-86
2022/06/20 09:50:23;;;;;;;;;;;18.30;86.90;;;;;;5090452;28;20030;-86
2022/06/20 09:53:16;;;;;;;;;;;18.30;88.20;;;;;;5062682;28;20397;-86
2022/06/20 09:55:48;;;;;;;;;;;18.30;87.50;;;;;;5060594;28;19924;-91
2022/06/20 09:58:32;;;;;;;;;;;18.30;87.50;;;;;;5098987;28;19931;-88
2022/06/20 10:01:07;;;;;;;;;;;18.30;87.70;;;;;;5082379;28;19931;-86
2022/06/20 10:03:49;;;;;;;;;;;18.40;86.90;;;;;;5080828;28;19924;-88
2022/06/20 10:06:30;;;;;;;;;;;18.30;87.00;;;;;;5098990;28;19931;-86
2022/06/20 10:09:09;;;;;;;;;;;18.30;85.60;;;;;;5097457;28;19924;-85
2022/06/20 10:11:42;;;;;;;;;;;18.40;86.90;;;;;;5063798;28;19928;-88
2022/06/20 10:14:15;;;;;;;;;;;18.40;87.20;;;;;;5078192;28;20515;-88
2022/06/20 10:16:46;;;;;;;;;;;17.70;86.70;;;;;;5076214;28;19924;-86
2022/06/20 10:19:31;;;;;;;;;;;18.40;86.80;;;;;;5098188;28;19931;-88
2022/06/20 10:22:11;;;;;;;;;;;18.40;85.10;;;;;;5055938;28;19928;-86
2022/06/20 10:24:39;;;;;;;;;;;18.60;87.00;;;;;;5077853;28;19924;-86
2022/06/20 10:27:20;;;;;;;;;;;18.80;87.50;;;;;;5078777;28;20127;-84
2022/06/20 10:30:02;;;;;;;;;;;19.00;85.10;;;;;;5101592;28;19924;-85
2022/06/20 10:32:40;;;;;;;;;;;19.20;85.60;;;;;;5082204;28;19925;-85
2022/06/20 10:35:19;;;;;;;;;;;19.40;84.30;;;;;;5082715;28;19931;-84
2022/06/20 10:38:11;;;;;;;;;;;19.50;84.30;;;;;;5100220;28;19928;-86
2022/06/20 10:40:59;;;;;;;;;;;19.50;84.60;;;;;;5069377;28;20358;-86
2022/06/20 10:43:49;;;;;;;;;;;20.70;84.30;;;;;;5107023;28;20347;-85
2022/06/20 10:46:26;;;;;;;;;;;19.70;81.70;;;;;;5103704;28;19931;-85
2022/06/20 10:49:19;;;;;;;;;;;19.70;82.30;;;;;;5089574;28;21026;-85
2022/06/20 10:52:04;;;;;;;;;;;19.80;83.20;;;;;;5092440;28;20194;-86
2022/06/20 10:54:54;;;;;;;;;;;20.20;82.00;;;;;;5104377;28;19942;-84
2022/06/20 10:57:36;;;;;;;;;;;20.40;81.30;;;;;;5084452;28;19924;-85
2022/06/20 11:00:10;;;;;;;;;;;20.60;80.50;;;;;;5086653;28;19924;-87
2022/06/20 11:02:56;;;;;;;;;;;20.70;81.30;;;;;;5085540;28;19925;-86
2022/06/20 11:05:35;;;;;;;;;;;20.70;80.50;;;;;;5102273;28;19924;-85
2022/06/20 11:08:35;;;;;;;;;;;20.70;77.90;;;;;;5067829;28;19940;-86
2022/06/20 11:11:15;;;;;;;;;;;20.90;78.60;;;;;;5065630;28;19932;-87
2022/06/20 11:14:10;;;;;;;;;;;21.00;78.30;;;;;;5067167;28;19928;-86
2022/06/20 11:17:02;;;;;;;;;;;21.10;78.50;;;;;;5081337;28;19947;-87
2022/06/20 11:19:39;;;;;;;;;;;21.40;77.90;;;;;;5082434;28;20160;-84
2022/06/20 11:22:16;;;;;;;;;;;21.50;78.50;;;;;;5088903;28;19924;-87
2022/06/20 11:24:47;;;;;;;;;;;21.60;77.80;;;;;;5072277;28;19924;-89
2022/06/20 11:27:21;;;;;;;;;;;21.50;76.40;;;;;;5075692;28;19924;-83
2022/06/20 11:30:07;;;;;;;;;;;21.40;77.20;;;;;;5108918;28;20072;-87
2022/06/20 11:33:02;;;;;;;;;;;21.40;77.30;;;;;;5101583;28;19928;-83
2022/06/20 11:35:39;;;;;;;;;;;21.50;77.20;;;;;;5084481;28;19923;-86
2022/06/20 11:38:15;;;;;;;;;;;21.50;76.60;;;;;;5072270;28;19942;-87
2022/06/20 11:40:49;;;;;;;;;;;21.50;76.60;;;;;;5087144;28;19912;-86
2022/06/20 11:43:38;;;;;;;;;;;21.60;77.20;;;;;;5088747;28;19946;-85
2022/06/20 11:46:37;;;;;;;;;;;21.70;76.80;;;;;;5065304;28;19935;-85
2022/06/20 11:49:24;;;;;;;;;;;21.90;75.70;;;;;;5072735;28;19928;-83
2022/06/20 11:52:00;;;;;;;;;;;22.10;75.40;;;;;;5107780;28;19928;-86
2022/06/20 11:54:47;;;;;;;;;;;22.20;75.40;;;;;;5075702;28;19931;-84
2022/06/20 11:57:28;;;;;;;;;;;22.30;75.70;;;;;;5080863;28;19928;-87
2022/06/20 12:00:21;;;;;;;;;;;22.40;74.70;;;;;;5096178;28;19924;-83
2022/06/20 12:02:59;;;;;;;;;;;22.40;73.40;;;;;;5078041;28;19924;-84
2022/06/20 12:05:42;;;;;;;;;;;22.50;73.50;;;;;;5080877;28;19930;-83
2022/06/20 12:08:36;;;;;;;;;;;22.50;74.40;;;;;;5084601;28;19932;-83
2022/06/20 12:11:15;;;;;;;;;;;22.50;74.60;;;;;;5066517;28;19928;-86
2022/06/20 12:17:27;;;;;;;;;;;22.60;73.70;;;;;;5063217;28;19939;-84
2022/06/20 12:26:32;;;;;;;;;;;22.60;74.10;;;;;;5103436;28;20402;-84
2022/06/20 12:29:21;;;;;;;;;;;22.40;73.20;;;;;;5048610;28;19924;-84
2022/06/20 12:31:52;;;;;;;;;;;22.70;73.20;;;;;;5079602;28;19928;-84
2022/06/20 12:34:25;;;;;;;;;;;22.70;72.40;;;;;;5063485;28;19924;-81
2022/06/20 12:37:22;;;;;;;;;;;22.40;74.30;;;;;;5078264;28;19928;-84
2022/06/20 12:40:05;;;;;;;;;;;23.00;72.50;;;;;;5083994;28;19935;-85
2022/06/20 12:42:52;;;;;;;;;;;23.10;72.40;;;;;;5061789;28;19943;-84
2022/06/20 12:45:46;;;;;;;;;;;23.20;72.10;;;;;;5071027;28;19908;-85
2022/06/20 12:48:19;;;;;;;;;;;23.20;72.50;;;;;;5068908;28;19925;-85
2022/06/20 12:51:05;;;;;;;;;;;23.30;72.30;;;;;;5088355;28;19919;-86
2022/06/20 12:53:54;;;;;;;;;;;23.40;72.10;;;;;;5087679;28;19924;-85
2022/06/20 12:56:31;;;;;;;;;;;23.50;72.00;;;;;;5091154;22;19935;-84
2022/06/20 12:59:02;;;;;;;;;;;23.60;71.60;;;;;;5083488;28;19931;-84
2022/06/20 13:01:39;;;;;;;;;;;23.50;72.00;;;;;;5077877;28;19924;-84
2022/06/20 13:04:27;;;;;;;;;;;23.40;72.60;;;;;;5080920;28;19925;-84
2022/06/20 13:07:01;;;;;;;;;;;23.40;72.30;;;;;;5075746;28;19928;-82
2022/06/20 13:09:48;;;;;;;;;;;23.20;72.70;;;;;;5080810;28;20418;-84
2022/06/20 13:12:26;;;;;;;;;;;23.70;71.60;;;;;;5075267;28;19957;-83
2022/06/20 13:15:17;;;;;;;;;;;24.00;72.00;;;;;;5096195;28;19935;-85
2022/06/20 13:18:09;;;;;;;;;;;24.30;71.90;;;;;;5076468;28;19935;-85
2022/06/20 13:20:52;;;;;;;;;;;24.40;69.80;;;;;;5090247;28;19939;-85
2022/06/20 13:23:55;;;;;;;;;;;24.50;69.80;;;;;;5064081;28;19928;-85
2022/06/20 13:26:37;;;;;;;;;;;24.70;70.90;;;;;;5048981;28;19939;-86
2022/06/20 13:29:05;;;;;;;;;;;24.90;70.10;;;;;;5077602;28;19928;-85
2022/06/20 13:31:42;;;;;;;;;;;25.00;68.70;;;;;;5072553;28;19924;-85
2022/06/20 13:34:15;;;;;;;;;;;25.10;68.40;;;;;;5092733;28;20414;-87
2022/06/20 13:37:01;;;;;;;;;;;25.20;70.30;;;;;;5095763;28;19935;-87
2022/06/20 13:39:38;;;;;;;;;;;25.30;70.00;;;;;;5088794;28;19924;-88
2022/06/20 13:42:17;;;;;;;;;;;25.40;69.40;;;;;;5090047;28;19934;-90
2022/06/20 13:44:54;;;;;;;;;;;25.40;68.60;;;;;;5087389;28;19923;-89
2022/06/20 13:47:30;;;;;;;;;;;25.50;68.80;;;;;;5077796;28;19954;-89
2022/06/20 13:50:18;;;;;;;;;;;25.50;67.70;;;;;;5067526;28;20021;-89
2022/06/20 13:52:51;;;;;;;;;;;25.60;69.50;;;;;;5074743;28;19928;-91
2022/06/20 13:55:24;;;;;;;;;;;25.70;68.20;;;;;;5088495;28;19939;-89
2022/06/20 13:57:59;;;;;;;;;;;25.10;68.10;;;;;;5076172;28;19948;-89
2022/06/20 14:00:34;;;;;;;;;;;25.80;68.30;;;;;;5079054;28;19927;-89
2022/06/20 14:03:25;;;;;;;;;;;26.10;68.20;;;;;;5093684;28;20539;-90
2022/06/20 14:06:07;;;;;;;;;;;26.30;67.90;;;;;;5090203;28;19928;-90
2022/06/20 14:08:37;;;;;;;;;;;26.50;67.50;;;;;;5092248;28;20383;-90
2022/06/20 14:11:07;;;;;;;;;;;26.50;66.50;;;;;;5079532;28;19923;-88
2022/06/20 14:13:46;;;;;;;;;;;26.60;67.50;;;;;;5098982;28;19932;-93
2022/06/20 14:16:24;;;;;;;;;;;26.80;67.50;;;;;;5097956;28;19924;-89
2022/06/20 14:18:59;;;;;;;;;;;27.10;66.70;;;;;;5108833;28;19934;-91
2022/06/20 14:21:34;;;;;;;;;;;27.30;66.10;;;;;;5083082;28;19928;-88
2022/06/20 14:24:03;;;;;;;;;;;27.40;65.20;;;;;;5092540;28;19970;-88
2022/06/20 14:30:07;;;;;;;;;;;27.80;64.30;;;;;;5092219;28;19930;-88
2022/06/20 14:32:48;;;;;;;;;;;27.90;63.80;;;;;;5096565;28;19928;-87
2022/06/20 14:35:23;;;;;;;;;;;28.00;63.90;;;;;;5069766;28;19924;-88
2022/06/20 14:38:14;;;;;;;;;;;28.00;63.00;;;;;;5116006;28;19935;-88
2022/06/20 14:40:47;;;;;;;;;;;28.20;63.80;;;;;;5104872;28;19927;-87
2022/06/20 14:43:22;;;;;;;;;;;28.50;64.10;;;;;;5110285;28;19928;-90
2022/06/20 14:46:02;;;;;;;;;;;28.70;63.40;;;;;;5118043;28;19924;-89
2022/06/20 14:48:37;;;;;;;;;;;29.00;63.10;;;;;;5203451;23;19920;-89
2022/06/20 14:51:30;;;;;;;;;;;29.20;62.80;;;;;;5097279;28;19930;-89
2022/06/20 14:54:28;;;;;;;;;;;29.30;61.70;;;;;;5081418;28;19912;-89
2022/06/20 14:57:46;;;;;;;;;;;29.30;61.40;;;;;;5110688;28;19924;-89
2022/06/20 15:00:49;;;;;;;;;;;29.60;62.30;;;;;;5071642;28;19930;-91
2022/06/20 15:03:44;;;;;;;;;;;29.30;60.60;;;;;;5073116;28;19928;-90
2022/06/20 15:06:22;;;;;;;;;;;29.70;61.20;;;;;;5076361;28;19913;-89
2022/06/20 15:09:10;;;;;;;;;;;30.00;61.70;;;;;;5115442;28;19924;-90
2022/06/20 15:11:59;;;;;;;;;;;30.20;60.00;;;;;;5097440;28;19943;-92
2022/06/20 15:14:33;;;;;;;;;;;30.20;60.80;;;;;;5092365;28;19942;-90
2022/06/20 15:17:17;;;;;;;;;;;30.20;60.00;;;;;;5105977;28;19939;-90
2022/06/20 15:19:49;;;;;;;;;;;30.40;59.80;;;;;;5070204;28;19931;-90
2022/06/20 15:22:39;;;;;;;;;;;31.00;60.10;;;;;;5072177;28;19931;-90
2022/06/20 15:25:16;;;;;;;;;;;29.60;58.90;;;;;;5086795;28;20504;-90
2022/06/20 15:27:58;;;;;;;;;;;;;;;;;;;;;
2022/06/20 15:30:53;;;;;;;;;;;30.20;59.50;;;;;;5093113;27;19934;-88
2022/06/20 15:33:33;;;;;;;;;;;30.40;58.60;;;;;;5106247;28;19928;-89
2022/06/20 15:36:05;;;;;;;;;;;30.20;59.00;;;;;;5104392;28;19927;-89
2022/06/20 15:38:47;;;;;;;;;;;29.20;59.60;;;;;;5120741;27;19935;-89
2022/06/20 15:41:24;;;;;;;;;;;30.00;58.90;;;;;;5099909;28;20214;-89
2022/06/20 15:44:04;;;;;;;;;;;29.80;59.30;;;;;;5102308;28;19940;-90
2022/06/20 15:46:58;;;;;;;;;;;29.90;58.90;;;;;;5103124;28;19931;-86
2022/06/20 15:49:29;;;;;;;;;;;30.20;59.30;;;;;;5106398;28;19939;-89
2022/06/20 15:53:17;;;;;;;;;;;30.70;58.70;;;;;;5119308;27;19915;-87
2022/06/20 15:56:31;;;;;;;;;;;31.00;58.30;;;;;;5090479;28;19939;-90
2022/06/20 15:59:33;;;;;;;;;;;31.80;58.40;;;;;;5086228;28;19923;-90
2022/06/20 16:02:30;;;;;;;;;;;32.00;57.20;;;;;;5027927;28;19928;-89
2022/06/20 16:05:13;;;;;;;;;;;32.20;57.60;;;;;;5091471;28;19934;-90
2022/06/20 16:08:10;;;;;;;;;;;33.70;56.30;;;;;;5121750;28;19934;-88
2022/06/20 16:11:20;;;;;;;;;;;32.40;55.70;;;;;;5092821;27;19935;-91
2022/06/20 16:13:50;;;;;;;;;;;31.30;55.00;;;;;;5079450;28;19923;-90
2022/06/20 16:16:27;;;;;;;;;;;31.90;55.80;;;;;;5082575;28;19939;-89
2022/06/20 16:19:05;;;;;;;;;;;31.80;56.20;;;;;;5119540;27;19939;-88